createdAt,value
2018-11-05T00:01:28.004Z,35.77
2018-11-05T00:03:56.658Z,36.70
2018-11-05T00:06:25.331Z,38.57
2018-11-05T00:08:53.991Z,38.67
2018-11-05T00:11:42.515Z,35.93
2018-11-05T00:14:11.191Z,36.10
2018-11-05T00:16:39.850Z,37.50
2018-11-05T00:19:08.701Z,39.83
2018-11-05T00:21:37.365Z,38.10
2018-11-05T00:24:06.027Z,38.70
2018-11-05T00:26:34.694Z,38.60
2018-11-05T00:29:03.395Z,38.80
2018-11-05T00:31:32.052Z,38.53
2018-11-05T00:34:00.723Z,41.57
2018-11-05T00:36:29.394Z,39.67
2018-11-05T00:38:58.047Z,38.43
2018-11-05T00:41:26.747Z,39.80
2018-11-05T00:43:55.438Z,40.83
2018-11-05T00:46:24.084Z,39.27
2018-11-05T00:48:52.754Z,40.50
2018-11-05T00:51:21.407Z,39.57
2018-11-05T00:53:50.091Z,40.87
2018-11-05T00:56:18.787Z,41.43
2018-11-05T00:58:47.480Z,41.33
2018-11-05T01:01:16.128Z,40.17
2018-11-05T01:03:44.810Z,40.43
2018-11-05T01:06:13.518Z,40.90
2018-11-05T01:08:42.253Z,40.00
2018-11-05T01:11:10.908Z,41.53
2018-11-05T01:13:39.619Z,41.40
2018-11-05T01:16:08.275Z,41.27
2018-11-05T01:18:36.943Z,40.37
2018-11-05T01:21:06.068Z,39.67
2018-11-05T01:23:34.726Z,39.80
2018-11-05T01:26:03.392Z,39.40
2018-11-05T01:28:32.052Z,39.20
2018-11-05T01:31:00.712Z,39.07
2018-11-05T01:33:29.366Z,38.60
2018-11-05T01:35:58.027Z,37.10
2018-11-05T01:38:26.683Z,38.50
2018-11-05T01:40:55.352Z,37.00
2018-11-05T01:43:24.021Z,39.37
2018-11-05T01:45:52.679Z,39.93
2018-11-05T01:48:21.355Z,36.03
2018-11-05T01:50:50.025Z,35.60
2018-11-05T01:53:18.771Z,37.30
2018-11-05T01:55:47.448Z,34.63
2018-11-05T01:58:16.121Z,37.33
2018-11-05T02:00:44.817Z,33.40
2018-11-05T02:03:13.500Z,35.23
2018-11-05T02:05:42.214Z,37.63
2018-11-05T02:08:10.873Z,40.70
2018-11-05T02:10:39.554Z,41.00
2018-11-05T02:13:08.302Z,38.53
2018-11-05T02:15:36.951Z,39.80
2018-11-05T02:18:05.804Z,41.87
2018-11-05T02:20:34.716Z,42.57
2018-11-05T02:23:03.404Z,41.10
2018-11-05T02:25:32.085Z,39.50
2018-11-05T02:28:00.760Z,39.20
2018-11-05T02:30:29.458Z,41.27
2018-11-05T02:32:58.137Z,39.33
2018-11-05T02:35:26.817Z,41.10
2018-11-05T02:37:55.493Z,40.17
2018-11-05T02:40:24.173Z,40.57
2018-11-05T02:42:52.989Z,40.60
2018-11-05T02:45:21.670Z,40.17
2018-11-05T02:47:50.360Z,39.73
2018-11-05T02:50:19.052Z,38.20
2018-11-05T02:52:48.024Z,40.40
2018-11-05T02:55:16.708Z,38.97
2018-11-05T02:57:45.393Z,38.07
2018-11-05T03:00:16.154Z,37.73
2018-11-05T03:02:44.860Z,37.07
2018-11-05T03:05:14.729Z,35.57
2018-11-05T03:07:44.028Z,38.20
2018-11-05T03:10:13.127Z,39.17
2018-11-05T03:12:42.520Z,38.83
2018-11-05T03:15:13.467Z,38.20
2018-11-05T03:17:42.173Z,37.67
2018-11-05T03:20:11.961Z,38.70
2018-11-05T03:22:41.252Z,40.47
2018-11-05T03:25:09.928Z,41.00
2018-11-05T03:27:38.888Z,41.20
2018-11-05T03:30:18.695Z,40.80
2018-11-05T03:32:47.682Z,39.67
2018-11-05T03:35:16.359Z,39.33
2018-11-05T03:37:45.856Z,40.03
2018-11-05T03:40:14.756Z,40.27
2018-11-05T03:42:43.842Z,39.77
2018-11-05T03:45:13.885Z,41.27
2018-11-05T03:47:42.763Z,36.20
2018-11-05T03:50:13.189Z,35.70
2018-11-05T03:52:42.171Z,34.90
2018-11-05T03:55:10.881Z,31.20
2018-11-05T03:57:39.554Z,30.87
2018-11-05T04:00:09.462Z,31.50
2018-11-05T04:02:38.141Z,31.80
2018-11-05T04:05:07.237Z,30.47
2018-11-05T04:07:35.961Z,27.67
2018-11-05T04:10:04.849Z,26.63
2018-11-05T04:12:33.537Z,26.17
2018-11-05T04:15:02.226Z,27.60
2018-11-05T04:17:31.470Z,25.90
2018-11-05T04:20:00.145Z,24.83
2018-11-05T04:22:28.901Z,24.87
2018-11-05T04:24:57.580Z,23.77
2018-11-05T04:27:26.264Z,23.93
2018-11-05T04:29:54.961Z,24.57
2018-11-05T04:32:23.717Z,24.77
2018-11-05T04:34:52.385Z,25.27
2018-11-05T04:37:21.087Z,23.73
2018-11-05T04:39:49.763Z,25.27
2018-11-05T04:42:18.445Z,24.00
2018-11-05T04:44:47.143Z,26.07
2018-11-05T04:47:15.809Z,26.07
2018-11-05T04:49:44.512Z,26.60
2018-11-05T04:52:13.189Z,26.60
2018-11-05T04:54:41.879Z,25.63
2018-11-05T04:57:10.557Z,26.60
2018-11-05T04:59:39.228Z,26.47
2018-11-05T05:02:07.933Z,26.17
2018-11-05T05:04:36.622Z,27.23
2018-11-05T05:07:05.509Z,26.80
2018-11-05T05:09:34.284Z,26.27
2018-11-05T05:12:02.956Z,28.73
2018-11-05T05:14:31.641Z,27.73
2018-11-05T05:17:00.333Z,30.13
2018-11-05T05:19:29.012Z,28.07
2018-11-05T05:21:57.735Z,28.00
2018-11-05T05:24:26.370Z,29.23
2018-11-05T05:26:55.034Z,28.73
2018-11-05T05:29:23.700Z,28.40
2018-11-05T05:31:52.384Z,29.47
2018-11-05T05:34:21.069Z,28.10
2018-11-05T05:36:49.838Z,28.43
2018-11-05T05:39:18.508Z,27.43
2018-11-05T05:41:47.209Z,29.43
2018-11-05T05:44:15.885Z,29.77
2018-11-05T05:46:44.579Z,28.90
2018-11-05T05:49:13.254Z,30.73
2018-11-05T05:51:42.145Z,29.03
2018-11-05T05:54:10.812Z,30.23
2018-11-05T05:56:39.480Z,32.33
2018-11-05T05:59:08.152Z,30.63
2018-11-05T06:01:36.830Z,30.10
2018-11-05T06:04:05.496Z,31.43
2018-11-05T06:06:34.216Z,33.10
2018-11-05T06:09:02.873Z,32.67
2018-11-05T06:11:31.621Z,32.03
2018-11-05T06:14:00.301Z,31.00
2018-11-05T06:16:28.988Z,32.60
2018-11-05T06:18:57.657Z,32.57
2018-11-05T06:21:26.336Z,33.33
2018-11-05T06:23:55.005Z,31.53
2018-11-05T06:26:23.693Z,31.63
2018-11-05T06:28:52.364Z,30.17
2018-11-05T06:31:21.246Z,31.23
2018-11-05T06:33:49.952Z,30.73
2018-11-05T06:36:18.762Z,31.23
2018-11-05T06:38:47.449Z,30.50
2018-11-05T06:41:16.161Z,30.33
2018-11-05T06:43:44.805Z,29.97
2018-11-05T06:46:19.822Z,30.63
2018-11-05T06:48:48.591Z,30.70
2018-11-05T06:51:17.201Z,31.33
2018-11-05T06:53:45.901Z,30.47
2018-11-05T06:56:14.596Z,32.07
2018-11-05T06:58:43.288Z,32.33
2018-11-05T07:01:11.988Z,32.93
2018-11-05T07:03:40.980Z,33.33
2018-11-05T07:06:09.672Z,31.73
2018-11-05T07:08:38.370Z,33.43
2018-11-05T07:11:07.106Z,32.50
2018-11-05T07:13:35.784Z,32.57
2018-11-05T07:16:04.628Z,31.67
2018-11-05T07:18:33.408Z,30.60
2018-11-05T07:21:02.018Z,32.63
2018-11-05T07:23:30.717Z,31.93
2018-11-05T07:25:59.422Z,29.83
2018-11-05T07:28:28.114Z,29.80
2018-11-05T07:30:56.815Z,29.40
2018-11-05T07:33:25.530Z,30.37
2018-11-05T07:35:54.200Z,30.80
2018-11-05T07:38:22.893Z,29.10
2018-11-05T07:40:51.585Z,28.93
2018-11-05T07:43:20.297Z,28.27
2018-11-05T07:45:49.087Z,27.07
2018-11-05T07:48:17.801Z,27.47
2018-11-05T07:50:46.548Z,26.73
2018-11-05T07:53:15.180Z,26.83
2018-11-05T07:55:43.881Z,26.70
2018-11-05T07:58:12.553Z,27.50
2018-11-05T08:00:46.809Z,26.77
2018-11-05T08:03:15.512Z,26.93
2018-11-05T08:05:44.192Z,26.93
2018-11-05T08:08:12.955Z,26.57
2018-11-05T08:10:41.573Z,26.27
2018-11-05T08:13:10.364Z,26.93
2018-11-05T08:15:39.041Z,25.87
2018-11-05T08:18:07.728Z,24.77
2018-11-05T08:20:36.404Z,25.07
2018-11-05T08:23:05.161Z,26.47
2018-11-05T08:25:33.840Z,25.07
2018-11-05T08:28:02.551Z,24.80
2018-11-05T08:30:31.229Z,25.67
2018-11-05T08:32:59.964Z,25.53
2018-11-05T08:35:28.724Z,23.67
2018-11-05T08:37:57.529Z,23.20
2018-11-05T08:40:27.216Z,24.50
2018-11-05T08:45:34.824Z,23.17
2018-11-05T08:48:03.512Z,23.07
2018-11-05T08:50:33.326Z,22.70
2018-11-05T08:53:01.953Z,22.83
2018-11-05T08:55:30.649Z,23.47
2018-11-05T08:57:59.357Z,22.70
2018-11-05T09:00:33.617Z,23.07
2018-11-05T09:03:02.322Z,21.57
2018-11-05T09:05:31.030Z,22.13
2018-11-05T09:07:59.746Z,22.23
2018-11-05T09:10:28.673Z,21.60
2018-11-05T09:12:57.163Z,21.10
2018-11-05T09:15:25.869Z,22.53
2018-11-05T09:17:54.601Z,21.93
2018-11-05T09:20:23.302Z,21.77
2018-11-05T09:22:52.576Z,22.80
2018-11-05T09:25:21.290Z,21.37
2018-11-05T09:27:50.102Z,22.30
2018-11-05T09:30:20.166Z,21.77
2018-11-05T09:32:48.953Z,22.27
2018-11-05T09:35:17.672Z,22.50
2018-11-05T09:37:46.403Z,22.03
2018-11-05T09:40:17.068Z,23.33
2018-11-05T09:42:46.480Z,25.03
2018-11-05T09:45:17.454Z,24.93
2018-11-05T09:47:46.689Z,23.60
2018-11-05T09:50:15.885Z,25.13
2018-11-05T09:52:44.617Z,24.50
2018-11-05T09:55:13.900Z,24.03
2018-11-05T09:57:42.970Z,24.37
2018-11-05T10:00:16.862Z,24.33
2018-11-05T10:02:51.134Z,24.50
2018-11-05T10:05:19.920Z,25.07
2018-11-05T10:07:49.541Z,28.30
2018-11-05T10:10:18.750Z,22.80
2018-11-05T10:12:47.417Z,22.80
2018-11-05T10:15:17.069Z,22.03
2018-11-05T10:17:45.776Z,20.87
2018-11-05T10:20:18.271Z,23.00
2018-11-05T10:22:47.332Z,23.17
2018-11-05T10:25:16.367Z,22.70
2018-11-05T10:27:45.307Z,21.97
2018-11-05T10:30:19.024Z,20.00
2018-11-05T10:32:47.728Z,20.00
2018-11-05T10:35:17.100Z,20.80
2018-11-05T10:37:45.779Z,20.73
2018-11-05T10:40:16.597Z,21.00
2018-11-05T10:42:46.124Z,20.80
2018-11-05T10:45:15.932Z,20.13
2018-11-05T10:47:44.675Z,19.20
2018-11-05T10:50:14.602Z,20.50
2018-11-05T10:52:44.464Z,19.57
2018-11-05T10:55:13.230Z,19.83
2018-11-05T10:57:42.368Z,20.03
2018-11-05T11:00:17.860Z,20.37
2018-11-05T11:02:52.107Z,20.07
2018-11-05T11:05:21.289Z,20.30
2018-11-05T11:07:50.274Z,19.73
2018-11-05T11:10:18.982Z,20.27
2018-11-05T11:12:47.682Z,21.17
2018-11-05T11:15:16.532Z,21.20
2018-11-05T11:17:45.160Z,21.60
2018-11-05T11:20:14.340Z,20.80
2018-11-05T11:22:43.037Z,20.73
2018-11-05T11:25:11.909Z,21.60
2018-11-05T11:27:40.619Z,23.03
2018-11-05T11:30:10.905Z,21.33
2018-11-05T11:32:39.796Z,21.57
2018-11-05T11:35:09.002Z,22.80
2018-11-05T11:37:37.977Z,20.87
2018-11-05T11:40:09.841Z,22.80
2018-11-05T11:42:39.566Z,23.37
2018-11-05T11:45:09.209Z,22.90
2018-11-05T11:47:38.158Z,23.00
2018-11-05T11:50:11.058Z,24.00
2018-11-05T11:52:39.852Z,24.20
2018-11-05T11:55:10.417Z,25.47
2018-11-05T11:57:39.471Z,23.93
2018-11-05T12:00:11.515Z,24.97
2018-11-05T12:02:40.199Z,25.57
2018-11-05T12:05:09.252Z,25.17
2018-11-05T12:07:37.937Z,25.03
2018-11-05T12:10:15.544Z,25.77
2018-11-05T12:12:44.562Z,24.57
2018-11-05T12:15:14.189Z,25.60
2018-11-05T12:17:43.464Z,25.43
2018-11-05T12:20:14.009Z,25.17
2018-11-05T12:22:43.190Z,24.73
2018-11-05T12:25:11.893Z,25.73
2018-11-05T12:27:40.584Z,26.13
2018-11-05T12:30:11.208Z,27.70
2018-11-05T12:32:39.901Z,30.03
2018-11-05T12:35:09.696Z,31.23
2018-11-05T12:37:38.574Z,30.13
2018-11-05T12:40:08.914Z,31.83
2018-11-05T12:42:37.644Z,30.47
2018-11-05T12:45:07.000Z,31.50
2018-11-05T12:47:35.656Z,28.87
2018-11-05T12:50:05.195Z,30.33
2018-11-05T12:52:33.856Z,30.53
2018-11-05T12:55:02.540Z,29.73
2018-11-05T12:57:31.225Z,32.10
2018-11-05T12:59:59.895Z,31.97
2018-11-05T13:02:28.572Z,30.83
2018-11-05T13:04:58.167Z,33.40
2018-11-05T13:07:26.818Z,32.80
2018-11-05T13:09:55.501Z,32.10
2018-11-05T13:12:24.217Z,31.70
2018-11-05T13:14:52.904Z,33.87
2018-11-05T13:17:21.573Z,32.47
2018-11-05T13:19:50.252Z,31.10
2018-11-05T13:22:19.015Z,31.50
2018-11-05T13:24:47.601Z,32.87
2018-11-05T13:27:16.302Z,32.23
2018-11-05T13:29:45.040Z,33.43
2018-11-05T13:32:13.761Z,32.30
2018-11-05T13:34:42.440Z,30.63
2018-11-05T13:37:11.258Z,30.60
2018-11-05T13:39:39.997Z,31.23
2018-11-05T13:42:08.685Z,32.87
2018-11-05T13:44:37.421Z,33.00
2018-11-05T13:47:06.750Z,31.30
2018-11-05T13:49:34.899Z,32.20
2018-11-05T13:52:03.560Z,33.80
2018-11-05T13:54:32.316Z,32.10
2018-11-05T13:57:00.912Z,32.77
2018-11-05T13:59:29.604Z,32.50
2018-11-05T14:01:58.297Z,32.93
2018-11-05T14:04:27.011Z,30.87
2018-11-05T14:06:55.681Z,31.40
2018-11-05T14:09:24.369Z,34.20
2018-11-05T14:11:53.073Z,32.13
2018-11-05T14:14:21.765Z,35.00
2018-11-05T14:16:50.448Z,36.57
2018-11-05T14:19:19.147Z,39.53
2018-11-05T14:21:47.844Z,40.77
2018-11-05T14:24:16.545Z,43.47
2018-11-05T14:26:45.301Z,42.27
2018-11-05T14:29:14.474Z,45.67
2018-11-05T14:31:42.712Z,44.93
2018-11-05T14:34:11.401Z,46.80
2018-11-05T14:36:40.141Z,48.13
2018-11-05T14:39:10.897Z,50.80
2018-11-05T14:41:39.613Z,47.60
2018-11-05T14:44:08.289Z,46.77
2018-11-05T14:46:36.984Z,48.40
2018-11-05T14:49:05.899Z,50.90
2018-11-05T14:51:34.844Z,48.17
2018-11-05T14:54:03.521Z,48.03
2018-11-05T14:56:32.216Z,47.27
2018-11-05T14:59:00.901Z,50.03
2018-11-05T15:01:29.592Z,49.30
2018-11-05T15:03:58.285Z,47.47
2018-11-05T15:06:26.986Z,49.30
2018-11-05T15:08:55.677Z,45.07
2018-11-05T15:11:24.361Z,44.67
2018-11-05T15:13:53.046Z,46.17
2018-11-05T15:16:21.761Z,44.13
2018-11-05T15:18:50.756Z,43.57
2018-11-05T15:21:19.138Z,43.80
2018-11-05T15:23:47.805Z,42.50
2018-11-05T15:26:16.497Z,42.33
2018-11-05T15:28:45.197Z,44.43
2018-11-05T15:31:13.916Z,41.57
2018-11-05T15:33:42.877Z,41.33
2018-11-05T15:36:11.492Z,42.20
2018-11-05T15:38:40.169Z,44.23
2018-11-05T15:41:08.853Z,42.07
2018-11-05T15:43:37.555Z,42.60
2018-11-05T15:46:06.392Z,42.63
2018-11-05T15:48:35.073Z,40.90
2018-11-05T15:51:03.877Z,44.30
2018-11-05T15:53:32.629Z,42.80
2018-11-05T15:56:01.134Z,42.87
2018-11-05T15:58:29.827Z,43.73
2018-11-05T16:00:58.544Z,44.97
2018-11-05T16:03:27.325Z,43.33
2018-11-05T16:05:56.123Z,41.30
2018-11-05T16:08:24.796Z,43.27
2018-11-05T16:10:53.500Z,43.80
2018-11-05T16:13:22.286Z,43.13
2018-11-05T16:15:51.097Z,45.33
2018-11-05T16:18:19.772Z,45.53
2018-11-05T16:20:48.465Z,44.50
2018-11-05T16:23:17.141Z,43.97
2018-11-05T16:25:45.945Z,43.57
2018-11-05T16:28:14.597Z,44.07
2018-11-05T16:30:43.382Z,44.00
2018-11-05T16:33:11.989Z,44.53
2018-11-05T16:35:40.825Z,44.10
2018-11-05T16:38:09.453Z,45.57
2018-11-05T16:40:38.170Z,44.77
2018-11-05T16:43:06.841Z,45.03
2018-11-05T16:45:35.536Z,44.90
2018-11-05T16:48:04.252Z,44.73
2018-11-05T16:50:32.912Z,44.73
2018-11-05T16:53:01.620Z,46.20
2018-11-05T16:55:30.305Z,41.97
2018-11-05T16:57:59.102Z,43.00
2018-11-05T17:00:27.786Z,44.77
2018-11-05T17:02:56.451Z,44.23
2018-11-05T17:05:25.072Z,42.60
2018-11-05T17:07:53.761Z,41.10
2018-11-05T17:10:23.000Z,42.53
2018-11-05T17:12:51.689Z,42.40
2018-11-05T17:15:20.368Z,41.47
2018-11-05T17:17:49.384Z,41.40
2018-11-05T17:20:19.217Z,40.03
2018-11-05T17:22:47.926Z,37.87
2018-11-05T17:25:16.901Z,37.37
2018-11-05T17:27:46.412Z,38.03
2018-11-05T17:30:17.465Z,37.00
2018-11-05T17:32:46.344Z,36.97
2018-11-05T17:35:15.525Z,36.10
2018-11-05T17:37:44.825Z,35.00
2018-11-05T17:40:14.780Z,35.37
2018-11-05T17:42:43.632Z,34.90
2018-11-05T17:45:14.481Z,37.30
2018-11-05T17:47:43.189Z,38.80
2018-11-05T17:50:13.890Z,38.47
2018-11-05T17:52:43.003Z,40.00
2018-11-05T17:55:12.230Z,42.77
2018-11-05T17:57:41.900Z,42.73
2018-11-05T18:00:13.129Z,38.77
2018-11-05T18:02:41.822Z,38.33
2018-11-05T18:05:10.518Z,34.93
2018-11-05T18:07:39.205Z,42.10
2018-11-05T18:10:08.172Z,46.13
2018-11-05T18:12:36.913Z,48.47
2018-11-05T18:15:07.633Z,45.83
2018-11-05T18:17:36.356Z,42.93
2018-11-05T18:20:06.110Z,41.27
2018-11-05T18:22:34.802Z,40.83
2018-11-05T18:25:03.484Z,41.10
2018-11-05T18:27:32.165Z,39.37
2018-11-05T18:30:00.853Z,41.57
2018-11-05T18:32:29.539Z,38.20
2018-11-05T18:34:58.223Z,39.10
2018-11-05T18:37:26.921Z,37.27
2018-11-05T18:39:55.588Z,41.67
2018-11-05T18:42:24.277Z,42.10
2018-11-05T18:44:53.067Z,42.83
2018-11-05T18:47:21.733Z,43.47
2018-11-05T18:49:50.424Z,45.43
2018-11-05T18:52:19.129Z,44.37
2018-11-05T18:54:47.823Z,42.17
2018-11-05T18:57:16.528Z,44.83
2018-11-05T18:59:45.244Z,43.93
2018-11-05T19:02:19.387Z,43.80
2018-11-05T19:04:48.069Z,43.33
2018-11-05T19:07:16.784Z,42.20
2018-11-05T19:09:45.565Z,42.47
2018-11-05T19:12:14.360Z,41.30
2018-11-05T19:14:43.057Z,40.13
2018-11-05T19:17:11.791Z,43.33
2018-11-05T19:19:40.476Z,41.53
2018-11-05T19:22:09.224Z,41.43
2018-11-05T19:24:37.861Z,41.93
2018-11-05T19:27:06.759Z,41.13
2018-11-05T19:29:35.457Z,41.33
2018-11-05T19:32:04.370Z,41.73
2018-11-05T19:34:33.053Z,39.30
2018-11-05T19:37:01.746Z,42.03
2018-11-05T19:39:30.457Z,42.80
2018-11-05T19:41:59.183Z,41.40
2018-11-05T19:44:27.876Z,41.73
2018-11-05T19:46:56.561Z,44.20
2018-11-05T19:49:25.283Z,38.57
2018-11-05T19:51:53.960Z,39.03
2018-11-05T19:54:22.721Z,42.30
2018-11-05T19:56:51.415Z,36.40
2018-11-05T19:59:20.126Z,32.27
2018-11-05T20:01:48.851Z,35.47
2018-11-05T20:04:17.536Z,34.87
2018-11-05T20:06:46.230Z,34.67
2018-11-05T20:09:14.939Z,36.27
2018-11-05T20:11:43.717Z,37.20
2018-11-05T20:14:12.394Z,38.03
2018-11-05T20:16:41.099Z,36.83
2018-11-05T20:19:09.867Z,35.70
2018-11-05T20:21:38.561Z,31.87
2018-11-05T20:24:07.269Z,31.03
2018-11-05T20:26:35.956Z,30.67
2018-11-05T20:29:05.005Z,29.27
2018-11-05T20:31:33.764Z,29.10
2018-11-05T20:34:02.682Z,31.17
2018-11-05T20:36:30.993Z,30.27
2018-11-05T20:38:59.699Z,33.00
2018-11-05T20:41:28.392Z,33.70
2018-11-05T20:43:57.091Z,30.93
2018-11-05T20:46:25.765Z,26.77
2018-11-05T20:48:54.456Z,27.23
2018-11-05T20:51:23.141Z,28.20
2018-11-05T20:53:51.880Z,27.63
2018-11-05T20:56:20.521Z,28.00
2018-11-05T20:58:49.241Z,27.77
2018-11-05T21:01:17.921Z,26.00
2018-11-05T21:03:46.616Z,27.03
2018-11-05T21:06:15.301Z,27.47
2018-11-05T21:08:44.017Z,27.50
2018-11-05T21:11:12.709Z,26.23
2018-11-05T21:13:41.765Z,26.87
2018-11-05T21:16:10.466Z,26.97
2018-11-05T21:18:39.156Z,28.43
2018-11-05T21:21:07.926Z,28.63
2018-11-05T21:23:36.564Z,27.57
2018-11-05T21:26:05.789Z,27.03
2018-11-05T21:28:34.496Z,27.37
2018-11-05T21:31:03.181Z,26.33
2018-11-05T21:33:31.880Z,27.30
2018-11-05T21:36:00.569Z,27.77
2018-11-05T21:38:29.333Z,27.73
2018-11-05T21:40:58.026Z,27.40
2018-11-05T21:43:26.729Z,26.33
2018-11-05T21:45:55.421Z,26.43
2018-11-05T21:48:24.132Z,27.50
2018-11-05T21:50:52.837Z,27.43
2018-11-05T21:53:21.541Z,25.17
2018-11-05T21:55:50.235Z,27.67
2018-11-05T21:58:18.945Z,26.70
2018-11-05T22:00:47.632Z,26.57
2018-11-05T22:03:17.718Z,26.97
2018-11-05T22:05:46.420Z,27.13
2018-11-05T22:08:15.133Z,27.20
2018-11-05T22:10:43.820Z,28.47
2018-11-05T22:13:12.512Z,25.87
2018-11-05T22:15:43.900Z,26.63
2018-11-05T22:18:12.776Z,28.27
2018-11-05T22:20:41.484Z,28.23
2018-11-05T22:23:10.185Z,26.13
2018-11-05T22:25:38.920Z,26.83
2018-11-05T22:28:07.717Z,28.97
2018-11-05T22:30:36.425Z,28.03
2018-11-05T22:33:05.676Z,28.80
2018-11-05T22:35:34.658Z,27.23
2018-11-05T22:38:03.405Z,27.63
2018-11-05T22:40:32.035Z,28.43
2018-11-05T22:43:00.764Z,28.17
2018-11-05T22:45:29.448Z,29.47
2018-11-05T22:47:58.128Z,27.40
2018-11-05T22:50:26.905Z,27.57
2018-11-05T22:52:55.622Z,28.23
2018-11-05T22:55:24.293Z,27.97
2018-11-05T22:57:52.988Z,27.87
2018-11-05T23:00:27.065Z,27.43
2018-11-05T23:03:01.150Z,28.97
2018-11-05T23:05:29.831Z,28.10
2018-11-05T23:07:58.516Z,28.83
2018-11-05T23:10:27.404Z,29.00
2018-11-05T23:12:56.089Z,28.70
2018-11-05T23:15:24.793Z,28.77
2018-11-05T23:17:53.545Z,28.33
2018-11-05T23:20:22.222Z,29.30
2018-11-05T23:22:50.935Z,28.00
2018-11-05T23:25:19.620Z,28.00
2018-11-05T23:27:48.320Z,28.33
2018-11-05T23:30:16.996Z,28.80
2018-11-05T23:32:45.692Z,28.67
2018-11-05T23:35:14.384Z,25.63
2018-11-05T23:37:43.065Z,24.90
2018-11-05T23:40:11.752Z,24.87
2018-11-05T23:42:40.664Z,20.40
2018-11-05T23:45:11.919Z,21.33
2018-11-05T23:47:40.933Z,19.53
2018-11-05T23:50:09.907Z,19.53
2018-11-05T23:52:38.598Z,18.67
2018-11-05T23:55:08.385Z,18.13
2018-11-05T23:57:37.103Z,18.17
